createdAt,value
2019-02-28T00:01:03.780Z,4.33
2019-02-28T00:03:31.326Z,4.90
2019-02-28T00:05:58.856Z,5.00
2019-02-28T00:08:26.436Z,4.90
2019-02-28T00:10:54.959Z,4.40
2019-02-28T00:13:22.600Z,5.13
2019-02-28T00:15:50.094Z,5.00
2019-02-28T00:18:17.624Z,5.13
2019-02-28T00:20:46.179Z,4.60
2019-02-28T00:23:13.698Z,4.93
2019-02-28T00:25:42.238Z,5.60
2019-02-28T00:28:10.832Z,5.60
2019-02-28T00:30:40.741Z,5.57
2019-02-28T00:33:06.727Z,5.80
2019-02-28T00:35:34.257Z,5.23
2019-02-28T00:38:01.813Z,4.87
2019-02-28T00:40:29.346Z,5.40
2019-02-28T00:42:56.894Z,4.90
2019-02-28T00:45:25.188Z,4.97
2019-02-28T00:47:52.747Z,5.03
2019-02-28T00:50:20.280Z,4.77
2019-02-28T00:52:47.831Z,5.27
2019-02-28T00:55:15.657Z,5.47
2019-02-28T00:57:43.698Z,4.87
2019-02-28T01:00:14.787Z,5.00
2019-02-28T01:02:42.312Z,7.73
2019-02-28T01:05:09.858Z,5.43
2019-02-28T01:07:37.385Z,4.70
2019-02-28T01:10:06.750Z,5.53
2019-02-28T01:12:34.282Z,8.63
2019-02-28T01:15:01.838Z,5.00
2019-02-28T01:17:29.385Z,4.87
2019-02-28T01:19:56.915Z,4.43
2019-02-28T01:22:26.726Z,4.70
2019-02-28T01:24:52.047Z,4.50
2019-02-28T01:27:20.884Z,4.60
2019-02-28T01:29:48.186Z,4.83
2019-02-28T01:32:16.371Z,4.63
2019-02-28T01:34:43.315Z,4.57
2019-02-28T01:37:10.870Z,5.90
2019-02-28T01:39:38.390Z,4.60
2019-02-28T01:42:05.917Z,4.50
2019-02-28T01:44:35.832Z,5.63
2019-02-28T01:47:03.070Z,4.47
2019-02-28T01:49:30.623Z,4.87
2019-02-28T01:51:58.155Z,4.50
2019-02-28T01:54:27.699Z,4.00
2019-02-28T01:56:53.275Z,4.77
2019-02-28T01:59:21.579Z,4.57
2019-02-28T02:01:48.403Z,4.60
2019-02-28T02:04:15.929Z,4.50
2019-02-28T02:06:43.483Z,4.50
2019-02-28T02:09:11.777Z,4.67
2019-02-28T02:11:39.734Z,4.37
2019-02-28T02:14:07.527Z,4.90
2019-02-28T02:16:34.862Z,4.27
2019-02-28T02:19:02.385Z,4.40
2019-02-28T02:21:31.408Z,4.63
2019-02-28T02:23:58.289Z,4.13
2019-02-28T02:26:25.851Z,4.10
2019-02-28T02:28:54.170Z,4.10
2019-02-28T02:31:27.614Z,4.30
2019-02-28T02:33:52.516Z,4.10
2019-02-28T02:36:17.736Z,3.93
2019-02-28T02:38:45.460Z,4.33
2019-02-28T02:41:12.986Z,4.03
2019-02-28T02:43:40.511Z,4.73
2019-02-28T02:46:08.067Z,4.30
2019-02-28T02:48:38.474Z,4.30
2019-02-28T02:51:03.199Z,4.53
2019-02-28T02:53:30.720Z,3.60
2019-02-28T02:56:03.447Z,3.57
2019-02-28T02:58:27.972Z,3.70
2019-02-28T03:00:53.432Z,3.00
2019-02-28T03:03:21.742Z,3.53
2019-02-28T03:05:49.304Z,3.53
2019-02-28T03:08:16.857Z,3.50
2019-02-28T03:10:44.392Z,5.17
2019-02-28T03:13:11.943Z,7.10
2019-02-28T03:15:39.480Z,6.37
2019-02-28T03:18:08.022Z,8.10
2019-02-28T03:20:35.553Z,4.60
2019-02-28T03:23:03.336Z,50.03
2019-02-28T03:25:30.718Z,9.80
2019-02-28T03:27:59.028Z,3.73
2019-02-28T03:30:31.225Z,2.83
2019-02-28T03:32:54.191Z,3.27
2019-02-28T03:35:21.780Z,7.00
2019-02-28T03:37:50.083Z,3.40
2019-02-28T03:40:17.655Z,3.30
2019-02-28T03:42:45.184Z,3.07
2019-02-28T03:45:13.438Z,4.37
2019-02-28T03:47:41.731Z,3.20
2019-02-28T03:50:09.263Z,2.97
2019-02-28T03:52:42.277Z,3.10
2019-02-28T03:55:05.354Z,3.43
2019-02-28T03:57:32.925Z,3.57
2019-02-28T04:00:00.527Z,3.40
2019-02-28T04:02:28.048Z,3.20
2019-02-28T04:04:55.604Z,3.40
2019-02-28T04:07:23.133Z,3.20
2019-02-28T04:09:50.691Z,3.30
2019-02-28T04:12:18.223Z,2.83
2019-02-28T04:14:46.551Z,3.43
2019-02-28T04:17:14.084Z,3.40
2019-02-28T04:19:41.738Z,3.00
2019-02-28T04:22:09.262Z,3.30
2019-02-28T04:24:37.579Z,3.20
2019-02-28T04:27:06.831Z,7.43
2019-02-28T04:29:32.743Z,3.80
2019-02-28T04:32:00.286Z,6.53
2019-02-28T04:34:27.822Z,4.00
2019-02-28T04:36:55.383Z,3.33
2019-02-28T04:39:23.588Z,3.20
2019-02-28T04:41:50.507Z,4.53
2019-02-28T04:44:18.415Z,3.00
2019-02-28T04:46:45.622Z,3.33
2019-02-28T04:49:13.174Z,3.03
2019-02-28T04:51:41.123Z,5.50
2019-02-28T04:54:08.331Z,6.43
2019-02-28T04:56:36.622Z,3.23
2019-02-28T04:59:04.174Z,3.40
2019-02-28T05:01:31.711Z,3.17
2019-02-28T05:04:02.186Z,2.70
2019-02-28T05:06:26.855Z,3.50
2019-02-28T05:08:54.411Z,3.40
2019-02-28T05:11:21.939Z,3.37
2019-02-28T05:13:49.503Z,4.00
2019-02-28T05:16:17.792Z,3.20
2019-02-28T05:18:45.316Z,3.57
2019-02-28T05:21:12.868Z,4.27
2019-02-28T05:23:40.423Z,9.23
2019-02-28T05:26:07.949Z,5.80
2019-02-28T05:28:40.279Z,4.90
2019-02-28T05:31:03.108Z,6.30
2019-02-28T05:33:30.675Z,4.80
2019-02-28T05:36:00.132Z,6.00
2019-02-28T05:38:26.547Z,7.87
2019-02-28T05:40:55.521Z,4.37
2019-02-28T05:43:21.675Z,5.37
2019-02-28T05:45:49.822Z,4.20
2019-02-28T05:48:16.801Z,4.70
2019-02-28T05:50:44.363Z,3.87
2019-02-28T05:53:11.888Z,3.87
2019-02-28T05:55:39.447Z,5.03
2019-02-28T05:58:07.000Z,5.13
2019-02-28T06:00:37.059Z,7.50
2019-02-28T06:03:02.672Z,6.57
2019-02-28T06:05:29.711Z,4.73
2019-02-28T06:07:57.267Z,5.00
2019-02-28T06:10:24.903Z,4.32
2019-02-28T06:12:52.374Z,4.67
2019-02-28T06:15:19.918Z,5.63
2019-02-28T06:17:47.446Z,12.77
2019-02-28T06:20:16.886Z,12.57
2019-02-28T06:22:42.595Z,6.03
2019-02-28T06:25:10.149Z,6.63
2019-02-28T06:27:41.705Z,5.80
2019-02-28T06:30:08.073Z,5.30
2019-02-28T06:32:32.865Z,5.93
2019-02-28T06:35:00.400Z,6.17
2019-02-28T06:37:27.971Z,6.70
2019-02-28T06:39:58.588Z,6.60
2019-02-28T06:42:23.107Z,6.60
2019-02-28T06:44:51.404Z,7.10
2019-02-28T06:47:18.934Z,5.90
2019-02-28T06:49:47.251Z,6.60
2019-02-28T06:52:14.807Z,7.60
2019-02-28T06:54:43.385Z,6.90
2019-02-28T06:57:10.919Z,7.00
2019-02-28T06:59:39.744Z,7.00
2019-02-28T07:02:08.838Z,7.70
2019-02-28T07:04:34.638Z,7.83
2019-02-28T07:07:02.175Z,7.30
2019-02-28T07:09:30.490Z,8.80
2019-02-28T07:11:57.311Z,8.10
2019-02-28T07:14:24.866Z,9.50
2019-02-28T07:16:52.426Z,9.30
2019-02-28T07:19:19.986Z,9.70
2019-02-28T07:21:47.524Z,10.10
2019-02-28T07:24:15.095Z,9.77
2019-02-28T07:26:42.663Z,9.37
2019-02-28T07:29:12.046Z,10.07
2019-02-28T07:31:37.811Z,9.23
2019-02-28T07:34:05.347Z,9.93
2019-02-28T07:36:32.879Z,10.10
2019-02-28T07:39:01.313Z,10.17
2019-02-28T07:41:28.072Z,10.20
2019-02-28T07:43:55.658Z,10.30
2019-02-28T07:46:24.707Z,11.00
2019-02-28T07:48:50.813Z,11.50
2019-02-28T07:51:22.009Z,12.10
2019-02-28T07:53:45.967Z,11.63
2019-02-28T07:56:13.507Z,11.27
2019-02-28T07:58:41.823Z,12.13
2019-02-28T08:01:09.387Z,13.50
2019-02-28T08:03:36.915Z,12.60
2019-02-28T08:06:05.670Z,12.93
2019-02-28T08:08:32.060Z,14.30
2019-02-28T08:10:59.624Z,14.43
2019-02-28T08:13:27.166Z,14.90
2019-02-28T08:15:56.511Z,14.00
2019-02-28T08:18:22.331Z,13.80
2019-02-28T08:20:50.636Z,12.30
2019-02-28T08:23:18.200Z,14.27
2019-02-28T08:25:45.764Z,15.03
2019-02-28T08:28:13.323Z,15.83
2019-02-28T08:30:40.860Z,16.43
2019-02-28T08:33:08.424Z,18.00
2019-02-28T08:35:36.032Z,18.73
2019-02-28T08:38:03.592Z,16.93
2019-02-28T08:40:31.160Z,17.10
2019-02-28T08:42:58.722Z,18.80
2019-02-28T08:45:26.306Z,18.20
2019-02-28T08:47:56.715Z,16.53
2019-02-28T08:50:23.568Z,17.27
2019-02-28T08:52:49.807Z,21.63
2019-02-28T08:55:17.371Z,19.03
2019-02-28T08:57:54.158Z,22.10
2019-02-28T09:00:22.737Z,17.63
2019-02-28T09:02:52.886Z,17.30
2019-02-28T09:05:17.947Z,16.90
2019-02-28T09:07:50.730Z,17.87
2019-02-28T09:10:20.505Z,18.10
2019-02-28T09:12:49.729Z,20.20
2019-02-28T09:15:17.274Z,19.03
2019-02-28T09:17:44.831Z,18.83
2019-02-28T09:20:12.699Z,18.80
2019-02-28T09:22:40.236Z,18.10
2019-02-28T09:25:12.131Z,17.67
2019-02-28T09:27:39.732Z,18.90
2019-02-28T09:30:09.699Z,18.00
2019-02-28T09:32:37.258Z,18.17
2019-02-28T09:35:06.064Z,18.73
2019-02-28T09:37:33.197Z,18.90
2019-02-28T09:40:00.764Z,18.00
2019-02-28T09:42:28.327Z,17.70
2019-02-28T09:44:55.887Z,17.90
2019-02-28T09:47:26.531Z,18.40
2019-02-28T09:49:51.031Z,16.47
2019-02-28T09:52:18.571Z,16.10
2019-02-28T09:54:46.141Z,16.30
2019-02-28T09:57:15.413Z,16.87
2019-02-28T09:59:41.340Z,17.03
2019-02-28T10:02:09.629Z,14.43
2019-02-28T10:04:36.491Z,15.20
2019-02-28T10:07:04.815Z,15.17
2019-02-28T10:09:32.383Z,13.90
2019-02-28T10:11:59.931Z,13.10
2019-02-28T10:14:28.774Z,14.40
2019-02-28T10:16:55.867Z,14.57
2019-02-28T10:19:23.837Z,13.97
2019-02-28T10:21:51.991Z,14.13
2019-02-28T10:24:18.597Z,13.43
2019-02-28T10:26:48.263Z,14.23
2019-02-28T10:29:14.548Z,14.10
2019-02-28T10:31:42.112Z,14.27
2019-02-28T10:34:09.682Z,13.20
2019-02-28T10:36:37.231Z,14.57
2019-02-28T10:39:05.821Z,12.73
2019-02-28T10:41:34.167Z,13.60
2019-02-28T10:44:01.707Z,14.43
2019-02-28T10:46:29.271Z,13.73
2019-02-28T10:48:56.807Z,12.27
2019-02-28T10:51:24.375Z,11.40
2019-02-28T10:53:51.912Z,10.93
2019-02-28T10:56:19.471Z,11.13
2019-02-28T10:58:47.193Z,10.50
2019-02-28T11:01:14.589Z,11.47
2019-02-28T11:03:42.155Z,10.20
2019-02-28T11:06:09.724Z,11.87
2019-02-28T11:08:37.296Z,11.97
2019-02-28T11:11:07.354Z,12.30
2019-02-28T11:13:33.010Z,11.60
2019-02-28T11:16:00.079Z,12.17
2019-02-28T11:18:27.647Z,12.00
2019-02-28T11:20:58.093Z,12.60
2019-02-28T11:23:22.793Z,14.30
2019-02-28T11:25:50.335Z,12.07
2019-02-28T11:28:17.867Z,12.67
2019-02-28T11:30:45.613Z,11.97
2019-02-28T11:33:13.010Z,12.77
2019-02-28T11:35:40.580Z,13.07
2019-02-28T11:38:08.115Z,12.90
2019-02-28T11:40:35.675Z,13.23
2019-02-28T11:43:03.918Z,13.03
2019-02-28T11:45:48.311Z,13.50
2019-02-28T11:48:20.098Z,14.27
2019-02-28T11:50:45.394Z,13.77
2019-02-28T11:53:12.931Z,14.03
2019-02-28T11:55:40.473Z,14.73
2019-02-28T11:58:08.032Z,13.97
2019-02-28T12:00:36.758Z,14.30
2019-02-28T12:03:05.610Z,14.60
2019-02-28T12:05:31.792Z,15.07
2019-02-28T12:07:59.350Z,13.87
2019-02-28T12:10:27.805Z,15.07
2019-02-28T12:12:56.398Z,15.27
2019-02-28T12:15:24.404Z,14.40
2019-02-28T12:17:51.963Z,14.40
2019-02-28T12:20:25.869Z,16.20
2019-02-28T12:22:53.139Z,14.23
2019-02-28T12:25:21.616Z,14.10
2019-02-28T12:27:49.152Z,15.43
2019-02-28T12:30:21.956Z,13.97
2019-02-28T12:32:47.935Z,15.13
2019-02-28T12:35:15.498Z,14.43
2019-02-28T12:37:43.032Z,14.73
2019-02-28T12:40:11.475Z,15.33
2019-02-28T12:42:39.013Z,16.23
2019-02-28T12:45:09.190Z,14.50
2019-02-28T12:47:38.619Z,17.40
2019-02-28T12:50:04.313Z,16.90
2019-02-28T12:52:31.883Z,17.10
2019-02-28T12:54:59.414Z,16.87
2019-02-28T12:57:27.738Z,18.70
2019-02-28T12:59:55.287Z,18.13
2019-02-28T13:02:22.941Z,17.90
2019-02-28T13:04:50.470Z,17.30
2019-02-28T13:07:19.771Z,17.83
2019-02-28T13:09:48.216Z,17.87
2019-02-28T13:12:15.674Z,18.50
2019-02-28T13:14:43.213Z,17.50
2019-02-28T13:17:11.802Z,17.10
2019-02-28T13:19:39.339Z,16.87
2019-02-28T13:22:06.879Z,16.20
2019-02-28T13:24:34.453Z,18.23
2019-02-28T13:27:02.005Z,16.97
2019-02-28T13:29:32.475Z,17.10
2019-02-28T13:32:01.481Z,15.90
2019-02-28T13:34:29.182Z,16.80
2019-02-28T13:36:54.244Z,15.73
2019-02-28T13:39:20.741Z,15.93
2019-02-28T13:41:48.314Z,15.50
2019-02-28T13:44:16.860Z,14.60
2019-02-28T13:46:44.400Z,16.10
2019-02-28T13:49:15.407Z,13.60
2019-02-28T13:51:42.101Z,14.07
2019-02-28T13:54:07.417Z,14.33
2019-02-28T13:56:34.758Z,13.50
2019-02-28T13:59:02.347Z,14.23
2019-02-28T14:01:29.894Z,12.60
2019-02-28T14:03:58.202Z,13.37
2019-02-28T14:06:25.785Z,12.67
2019-02-28T14:08:53.360Z,12.23
2019-02-28T14:11:20.949Z,13.43
2019-02-28T14:13:49.260Z,14.10
2019-02-28T14:16:16.836Z,12.97
2019-02-28T14:18:45.351Z,13.07
2019-02-28T14:21:11.992Z,14.50
2019-02-28T14:23:39.523Z,13.60
2019-02-28T14:26:07.087Z,13.90
2019-02-28T14:28:35.628Z,14.23
2019-02-28T14:31:02.226Z,13.53
2019-02-28T14:33:29.783Z,12.67
2019-02-28T14:35:57.398Z,13.10
2019-02-28T14:38:26.081Z,14.60
2019-02-28T14:40:52.971Z,14.17
2019-02-28T14:43:20.732Z,14.37
2019-02-28T14:45:47.827Z,14.40
2019-02-28T14:48:15.394Z,13.20
2019-02-28T14:50:43.654Z,13.80
2019-02-28T14:53:16.328Z,13.83
2019-02-28T14:55:43.979Z,14.90
2019-02-28T14:58:11.543Z,15.03
2019-02-28T15:00:42.094Z,13.90
2019-02-28T15:03:07.044Z,13.97
2019-02-28T15:05:37.459Z,14.37
2019-02-28T15:08:05.003Z,13.40
2019-02-28T15:10:34.231Z,15.27
2019-02-28T15:13:01.679Z,14.80
2019-02-28T15:15:29.243Z,16.70
2019-02-28T15:17:56.840Z,14.93
2019-02-28T15:20:24.388Z,14.37
2019-02-28T15:22:52.448Z,13.80
2019-02-28T15:25:20.503Z,14.47
2019-02-28T15:27:48.119Z,15.90
2019-02-28T15:30:17.899Z,15.27
2019-02-28T15:32:45.463Z,15.77
2019-02-28T15:35:15.215Z,15.80
2019-02-28T15:37:41.459Z,15.60
2019-02-28T15:40:12.779Z,14.10
2019-02-28T15:42:43.003Z,14.90
2019-02-28T15:45:08.992Z,14.40
2019-02-28T15:47:36.530Z,14.90
2019-02-28T15:50:05.060Z,15.70
2019-02-28T15:52:32.608Z,15.03
2019-02-28T15:55:02.943Z,15.73
2019-02-28T15:57:30.111Z,15.73
2019-02-28T15:59:55.347Z,16.60
2019-02-28T16:02:22.911Z,15.93
2019-02-28T16:04:50.449Z,15.60
2019-02-28T16:07:18.571Z,16.20
2019-02-28T16:09:46.135Z,15.20
2019-02-28T16:12:15.124Z,15.37
2019-02-28T16:14:42.803Z,15.07
2019-02-28T16:17:10.371Z,15.77
2019-02-28T16:19:37.914Z,15.10
2019-02-28T16:22:05.471Z,16.07
2019-02-28T16:24:33.003Z,15.07
2019-02-28T16:27:01.343Z,17.13
2019-02-28T16:29:28.895Z,16.13
2019-02-28T16:31:56.532Z,17.63
2019-02-28T16:34:24.066Z,15.23
2019-02-28T16:36:51.638Z,15.47
2019-02-28T16:39:19.172Z,16.10
2019-02-28T16:41:46.740Z,16.23
2019-02-28T16:44:14.318Z,15.90
2019-02-28T16:46:41.899Z,16.57
2019-02-28T16:49:11.258Z,15.03
2019-02-28T16:51:38.639Z,14.13
2019-02-28T16:54:07.388Z,13.93
2019-02-28T16:56:37.606Z,13.30
2019-02-28T16:59:04.302Z,12.33
2019-02-28T17:01:31.848Z,12.90
2019-02-28T17:04:00.381Z,12.07
2019-02-28T17:06:26.994Z,10.37
2019-02-28T17:08:55.442Z,11.97
2019-02-28T17:11:24.999Z,10.20
2019-02-28T17:13:55.087Z,8.87
2019-02-28T17:16:24.392Z,7.93
2019-02-28T17:18:53.525Z,7.20
2019-02-28T17:21:19.590Z,7.80
2019-02-28T17:23:47.131Z,7.17
2019-02-28T17:26:14.695Z,7.00
2019-02-28T17:28:49.806Z,9.27
2019-02-28T17:31:17.679Z,6.60
2019-02-28T17:33:46.848Z,6.70
2019-02-28T17:36:13.807Z,8.90
2019-02-28T17:38:41.403Z,11.70
2019-02-28T17:41:10.925Z,7.27
2019-02-28T17:43:38.321Z,7.17
2019-02-28T17:46:05.907Z,7.90
2019-02-28T17:48:36.994Z,6.67
2019-02-28T17:51:09.297Z,7.57
2019-02-28T17:53:42.005Z,7.37
2019-02-28T17:59:10.764Z,7.30
2019-02-28T18:01:45.779Z,7.87
2019-02-28T18:04:16.155Z,8.23
2019-02-28T18:06:51.120Z,7.70
2019-02-28T18:09:23.127Z,8.43
2019-02-28T18:11:55.078Z,7.87
2019-02-28T18:14:24.506Z,8.40
2019-02-28T18:17:01.873Z,8.73
2019-02-28T18:19:51.141Z,9.03
2019-02-28T18:22:35.361Z,8.50
2019-02-28T18:25:04.461Z,9.93
2019-02-28T18:27:39.634Z,9.20
2019-02-28T18:30:12.667Z,9.20
2019-02-28T18:32:40.199Z,9.73
2019-02-28T18:35:07.759Z,7.57
2019-02-28T18:37:35.295Z,7.73
2019-02-28T18:40:02.847Z,7.60
2019-02-28T18:42:30.383Z,8.20
2019-02-28T18:44:57.938Z,8.17
2019-02-28T18:47:25.535Z,6.67
2019-02-28T18:49:53.127Z,6.10
2019-02-28T18:52:21.461Z,7.07
2019-02-28T18:54:49.067Z,5.63
2019-02-28T18:57:16.598Z,5.20
2019-02-28T18:59:45.807Z,5.10
2019-02-28T19:02:14.367Z,5.60
2019-02-28T19:04:43.347Z,5.30
2019-02-28T19:07:12.410Z,5.23
2019-02-28T19:09:41.629Z,7.20
2019-02-28T19:12:10.015Z,5.37
2019-02-28T19:14:37.807Z,5.50
2019-02-28T19:17:07.432Z,4.57
2019-02-28T19:19:34.967Z,5.30
2019-02-28T19:22:02.868Z,5.90
2019-02-28T19:24:30.412Z,6.37
2019-02-28T19:26:58.038Z,4.23
2019-02-28T19:29:25.635Z,5.67
2019-02-28T19:31:53.976Z,5.60
2019-02-28T19:34:21.526Z,5.27
2019-02-28T19:36:49.082Z,4.80
2019-02-28T19:39:16.618Z,5.50
2019-02-28T19:41:44.615Z,8.43
2019-02-28T19:44:12.171Z,6.50
2019-02-28T19:46:39.710Z,5.40
2019-02-28T19:49:07.277Z,7.60
2019-02-28T19:51:34.806Z,4.97
2019-02-28T19:54:02.363Z,5.60
2019-02-28T19:56:29.978Z,5.77
2019-02-28T19:58:57.578Z,7.53
2019-02-28T20:01:25.111Z,4.63
2019-02-28T20:03:52.743Z,6.33
2019-02-28T20:06:21.071Z,6.63
2019-02-28T20:08:49.626Z,7.30
2019-02-28T20:11:17.163Z,4.80
2019-02-28T20:13:45.057Z,7.20
2019-02-28T20:16:12.715Z,7.50
2019-02-28T20:18:40.298Z,6.60
2019-02-28T20:21:07.886Z,6.10
2019-02-28T20:23:35.464Z,4.27
2019-02-28T20:26:03.099Z,5.40
2019-02-28T20:28:30.639Z,5.43
2019-02-28T20:30:58.176Z,5.13
2019-02-28T20:33:26.745Z,5.50
2019-02-28T20:35:54.287Z,6.50
2019-02-28T20:38:22.826Z,9.90
2019-02-28T20:40:50.362Z,4.90
2019-02-28T20:43:17.922Z,5.37
2019-02-28T20:45:45.483Z,5.70
2019-02-28T20:48:13.042Z,6.30
2019-02-28T20:50:42.325Z,5.30
2019-02-28T20:53:09.857Z,5.77
2019-02-28T20:55:37.426Z,9.67
2019-02-28T20:58:04.971Z,6.00
2019-02-28T21:00:32.540Z,5.30
2019-02-28T21:03:00.084Z,4.80
2019-02-28T21:05:27.939Z,5.00
2019-02-28T21:07:56.654Z,4.00
2019-02-28T21:10:23.101Z,4.20
2019-02-28T21:12:50.654Z,4.10
2019-02-28T21:15:18.445Z,4.17
2019-02-28T21:17:46.768Z,4.30
2019-02-28T21:20:14.323Z,3.00
2019-02-28T21:22:41.853Z,3.40
2019-02-28T21:25:11.503Z,4.13
2019-02-28T21:27:39.094Z,4.73
2019-02-28T21:30:18.373Z,3.73
2019-02-28T21:32:45.927Z,4.30
2019-02-28T21:35:13.490Z,4.93
2019-02-28T21:37:41.048Z,5.30
2019-02-28T21:40:08.615Z,6.13
2019-02-28T21:42:36.167Z,4.87
2019-02-28T21:45:03.723Z,5.10
2019-02-28T21:47:31.264Z,8.70
2019-02-28T21:49:58.840Z,5.50
2019-02-28T21:52:26.403Z,11.60
2019-02-28T21:54:53.954Z,5.50
2019-02-28T21:57:21.491Z,9.20
2019-02-28T21:59:49.059Z,8.10
2019-02-28T22:02:18.614Z,5.80
2019-02-28T22:04:44.190Z,7.93
2019-02-28T22:07:11.738Z,13.57
2019-02-28T22:09:39.316Z,9.43
2019-02-28T22:12:06.851Z,4.70
2019-02-28T22:14:34.415Z,3.83
2019-02-28T22:17:01.951Z,3.40
2019-02-28T22:19:29.507Z,5.83
2019-02-28T22:21:57.039Z,3.67
2019-02-28T22:24:24.595Z,5.80
2019-02-28T22:26:52.136Z,8.10
2019-02-28T22:29:19.666Z,4.33
2019-02-28T22:31:48.079Z,10.03
2019-02-28T22:34:16.092Z,4.23
2019-02-28T22:36:44.164Z,4.77
2019-02-28T22:39:11.944Z,6.20
2019-02-28T22:41:39.568Z,4.40
2019-02-28T22:44:07.199Z,7.17
2019-02-28T22:46:35.133Z,7.27
2019-02-28T22:49:02.667Z,4.10
2019-02-28T22:51:30.243Z,5.40
2019-02-28T22:53:57.774Z,5.47
2019-02-28T22:56:25.335Z,4.37
2019-02-28T22:58:53.794Z,5.10
2019-02-28T23:01:21.392Z,2.97
2019-02-28T23:03:48.923Z,3.83
2019-02-28T23:06:16.481Z,3.27
2019-02-28T23:08:44.017Z,3.13
2019-02-28T23:11:12.604Z,3.30
2019-02-28T23:13:40.148Z,3.20
2019-02-28T23:16:07.706Z,3.50
2019-02-28T23:18:36.007Z,3.20
2019-02-28T23:21:03.570Z,3.30
2019-02-28T23:23:31.108Z,15.27
2019-02-28T23:26:06.350Z,5.10
2019-02-28T23:28:32.956Z,3.67
2019-02-28T23:34:01.278Z,5.93
2019-02-28T23:36:26.398Z,3.23
2019-02-28T23:38:53.943Z,5.03
2019-02-28T23:41:22.336Z,3.90
2019-02-28T23:43:50.524Z,3.77
2019-02-28T23:46:19.326Z,6.47
2019-02-28T23:48:46.910Z,7.80
2019-02-28T23:51:14.456Z,4.00
2019-02-28T23:53:42.777Z,7.03
2019-02-28T23:56:10.310Z,4.50
2019-02-28T23:58:37.867Z,3.77
